sensor_id;sensor_type;location;lat;lon;timestamp;P1;durP1;ratioP1;P2;durP2;ratioP2
28455;SDS011;15682;56.742;38.866;2023-02-15T00:00:36;13.6;;;2.4;;
28455;SDS011;15682;56.742;38.866;2023-02-15T00:02:36;8.5;;;1.5;;
28455;SDS011;15682;56.742;38.866;2023-02-15T00:04:35;12.5;;;1.7;;
28455;SDS011;15682;56.742;38.866;2023-02-15T00:06:35;9.5;;;1.6;;
28455;SDS011;15682;56.742;38.866;2023-02-15T00:08:35;8.3;;;1.8;;
28455;SDS011;15682;56.742;38.866;2023-02-15T00:10:35;10.3;;;2.0;;
28455;SDS011;15682;56.742;38.866;2023-02-15T00:12:35;9.4;;;1.7;;
28455;SDS011;15682;56.742;38.866;2023-02-15T00:14:35;10.0;;;1.8;;
28455;SDS011;15682;56.742;38.866;2023-02-15T00:16:35;6.8;;;1.5;;
28455;SDS011;15682;56.742;38.866;2023-02-15T00:18:34;10.3;;;1.7;;
28455;SDS011;15682;56.742;38.866;2023-02-15T00:20:34;7.1;;;1.5;;
28455;SDS011;15682;56.742;38.866;2023-02-15T00:22:34;9.5;;;1.7;;
28455;SDS011;15682;56.742;38.866;2023-02-15T00:24:34;8.2;;;1.9;;
28455;SDS011;15682;56.742;38.866;2023-02-15T00:26:34;8.2;;;1.9;;
28455;SDS011;15682;56.742;38.866;2023-02-15T00:28:34;8.0;;;2.1;;
28455;SDS011;15682;56.742;38.866;2023-02-15T00:30:34;9.4;;;1.9;;
28455;SDS011;15682;56.742;38.866;2023-02-15T00:32:33;7.5;;;1.6;;
28455;SDS011;15682;56.742;38.866;2023-02-15T00:34:33;7.6;;;1.9;;
28455;SDS011;15682;56.742;38.866;2023-02-15T00:36:33;8.4;;;1.9;;
28455;SDS011;15682;56.742;38.866;2023-02-15T00:38:33;7.9;;;1.8;;
28455;SDS011;15682;56.742;38.866;2023-02-15T00:40:33;9.5;;;1.8;;
28455;SDS011;15682;56.742;38.866;2023-02-15T00:42:33;10.0;;;1.9;;
28455;SDS011;15682;56.742;38.866;2023-02-15T00:44:33;8.6;;;1.7;;
28455;SDS011;15682;56.742;38.866;2023-02-15T00:46:33;7.7;;;1.7;;
28455;SDS011;15682;56.742;38.866;2023-02-15T00:48:32;8.3;;;1.7;;
28455;SDS011;15682;56.742;38.866;2023-02-15T00:50:32;8.1;;;1.7;;
28455;SDS011;15682;56.742;38.866;2023-02-15T00:52:32;11.1;;;1.9;;
28455;SDS011;15682;56.742;38.866;2023-02-15T00:54:32;8.1;;;1.7;;
28455;SDS011;15682;56.742;38.866;2023-02-15T00:56:32;10.0;;;1.6;;
28455;SDS011;15682;56.742;38.866;2023-02-15T00:58:32;6.9;;;1.5;;
28455;SDS011;15682;56.742;38.866;2023-02-15T01:00:32;6.3;;;1.5;;
28455;SDS011;15682;56.742;38.866;2023-02-15T01:02:31;7.9;;;1.9;;
28455;SDS011;15682;56.742;38.866;2023-02-15T01:04:31;9.5;;;1.7;;
28455;SDS011;15682;56.742;38.866;2023-02-15T01:06:31;8.9;;;1.7;;
28455;SDS011;15682;56.742;38.866;2023-02-15T01:08:31;10.8;;;1.9;;
28455;SDS011;15682;56.742;38.866;2023-02-15T01:10:31;5.3;;;1.5;;
28455;SDS011;15682;56.742;38.866;2023-02-15T01:12:31;7.8;;;1.6;;
28455;SDS011;15682;56.742;38.866;2023-02-15T01:14:31;13.1;;;2.1;;
28455;SDS011;15682;56.742;38.866;2023-02-15T01:16:31;9.3;;;1.8;;
28455;SDS011;15682;56.742;38.866;2023-02-15T01:18:30;7.6;;;1.8;;
28455;SDS011;15682;56.742;38.866;2023-02-15T01:20:33;8.5;;;1.5;;
28455;SDS011;15682;56.742;38.866;2023-02-15T01:22:30;8.8;;;1.4;;
28455;SDS011;15682;56.742;38.866;2023-02-15T01:24:30;9.8;;;1.5;;
28455;SDS011;15682;56.742;38.866;2023-02-15T01:26:30;7.1;;;1.8;;
28455;SDS011;15682;56.742;38.866;2023-02-15T01:28:30;6.0;;;1.6;;
28455;SDS011;15682;56.742;38.866;2023-02-15T01:30:30;7.7;;;1.6;;
28455;SDS011;15682;56.742;38.866;2023-02-15T01:32:29;6.1;;;1.4;;
28455;SDS011;15682;56.742;38.866;2023-02-15T01:34:29;6.0;;;1.5;;
28455;SDS011;15682;56.742;38.866;2023-02-15T01:36:29;9.9;;;1.6;;
28455;SDS011;15682;56.742;38.866;2023-02-15T01:38:29;7.3;;;1.6;;
28455;SDS011;15682;56.742;38.866;2023-02-15T01:40:29;7.5;;;1.7;;
28455;SDS011;15682;56.742;38.866;2023-02-15T01:42:29;9.9;;;1.9;;
28455;SDS011;15682;56.742;38.866;2023-02-15T01:46:31;8.2;;;1.9;;
28455;SDS011;15682;56.742;38.866;2023-02-15T01:48:28;6.8;;;1.3;;
28455;SDS011;15682;56.742;38.866;2023-02-15T01:50:29;5.8;;;1.5;;
28455;SDS011;15682;56.742;38.866;2023-02-15T01:52:28;11.7;;;1.9;;
28455;SDS011;15682;56.742;38.866;2023-02-15T01:54:29;6.6;;;1.5;;
28455;SDS011;15682;56.742;38.866;2023-02-15T01:56:29;6.9;;;1.5;;
28455;SDS011;15682;56.742;38.866;2023-02-15T01:58:28;12.1;;;1.8;;
28455;SDS011;15682;56.742;38.866;2023-02-15T02:00:27;9.1;;;1.7;;
28455;SDS011;15682;56.742;38.866;2023-02-15T02:02:27;6.7;;;1.7;;
28455;SDS011;15682;56.742;38.866;2023-02-15T02:04:29;9.4;;;1.9;;
28455;SDS011;15682;56.742;38.866;2023-02-15T02:06:27;8.4;;;1.7;;
28455;SDS011;15682;56.742;38.866;2023-02-15T02:08:27;5.9;;;1.5;;
28455;SDS011;15682;56.742;38.866;2023-02-15T02:10:27;7.5;;;1.7;;
28455;SDS011;15682;56.742;38.866;2023-02-15T02:12:26;8.1;;;1.6;;
28455;SDS011;15682;56.742;38.866;2023-02-15T02:14:26;7.7;;;1.6;;
28455;SDS011;15682;56.742;38.866;2023-02-15T02:16:28;9.0;;;1.6;;
28455;SDS011;15682;56.742;38.866;2023-02-15T02:18:32;8.9;;;1.8;;
28455;SDS011;15682;56.742;38.866;2023-02-15T02:20:28;8.9;;;1.7;;
28455;SDS011;15682;56.742;38.866;2023-02-15T02:22:39;10.3;;;1.9;;
28455;SDS011;15682;56.742;38.866;2023-02-15T02:24:32;5.9;;;1.4;;
28455;SDS011;15682;56.742;38.866;2023-02-15T02:26:31;8.0;;;1.5;;
28455;SDS011;15682;56.742;38.866;2023-02-15T02:28:35;8.0;;;1.7;;
28455;SDS011;15682;56.742;38.866;2023-02-15T02:30:28;8.8;;;1.7;;
28455;SDS011;15682;56.742;38.866;2023-02-15T02:32:33;7.8;;;2.0;;
28455;SDS011;15682;56.742;38.866;2023-02-15T02:34:25;10.5;;;1.9;;
28455;SDS011;15682;56.742;38.866;2023-02-15T02:36:27;6.8;;;1.5;;
28455;SDS011;15682;56.742;38.866;2023-02-15T02:38:27;8.4;;;1.6;;
28455;SDS011;15682;56.742;38.866;2023-02-15T02:40:25;6.7;;;1.7;;
28455;SDS011;15682;56.742;38.866;2023-02-15T02:42:25;5.6;;;1.4;;
28455;SDS011;15682;56.742;38.866;2023-02-15T02:44:25;9.6;;;1.7;;
28455;SDS011;15682;56.742;38.866;2023-02-15T02:46:26;6.1;;;1.3;;
28455;SDS011;15682;56.742;38.866;2023-02-15T02:48:25;6.1;;;1.5;;
28455;SDS011;15682;56.742;38.866;2023-02-15T02:50:25;3.9;;;1.5;;
28455;SDS011;15682;56.742;38.866;2023-02-15T02:54:23;7.1;;;1.4;;
28455;SDS011;15682;56.742;38.866;2023-02-15T02:56:24;6.7;;;1.7;;
28455;SDS011;15682;56.742;38.866;2023-02-15T02:58:24;4.9;;;1.5;;
28455;SDS011;15682;56.742;38.866;2023-02-15T03:00:23;8.8;;;1.3;;
28455;SDS011;15682;56.742;38.866;2023-02-15T03:02:24;7.3;;;1.6;;
28455;SDS011;15682;56.742;38.866;2023-02-15T03:04:24;11.3;;;2.1;;
28455;SDS011;15682;56.742;38.866;2023-02-15T03:06:24;10.1;;;1.9;;
28455;SDS011;15682;56.742;38.866;2023-02-15T03:08:23;9.4;;;1.7;;
28455;SDS011;15682;56.742;38.866;2023-02-15T03:10:22;10.2;;;1.7;;
28455;SDS011;15682;56.742;38.866;2023-02-15T03:12:23;9.2;;;1.9;;
28455;SDS011;15682;56.742;38.866;2023-02-15T03:14:22;6.6;;;1.7;;
28455;SDS011;15682;56.742;38.866;2023-02-15T03:16:22;12.5;;;2.1;;
28455;SDS011;15682;56.742;38.866;2023-02-15T03:18:22;9.2;;;2.1;;
28455;SDS011;15682;56.742;38.866;2023-02-15T03:20:22;11.1;;;2.1;;
28455;SDS011;15682;56.742;38.866;2023-02-15T03:22:22;9.9;;;2.1;;
28455;SDS011;15682;56.742;38.866;2023-02-15T03:24:21;11.9;;;2.2;;
28455;SDS011;15682;56.742;38.866;2023-02-15T03:26:21;9.9;;;2.1;;
28455;SDS011;15682;56.742;38.866;2023-02-15T03:28:22;8.2;;;1.9;;
28455;SDS011;15682;56.742;38.866;2023-02-15T03:30:21;12.4;;;2.0;;
28455;SDS011;15682;56.742;38.866;2023-02-15T03:32:21;11.2;;;2.3;;
28455;SDS011;15682;56.742;38.866;2023-02-15T03:34:20;10.5;;;2.0;;
28455;SDS011;15682;56.742;38.866;2023-02-15T03:36:21;12.2;;;2.4;;
28455;SDS011;15682;56.742;38.866;2023-02-15T03:38:21;10.7;;;2.2;;
28455;SDS011;15682;56.742;38.866;2023-02-15T03:40:21;13.4;;;2.3;;
28455;SDS011;15682;56.742;38.866;2023-02-15T03:42:22;10.4;;;2.5;;
28455;SDS011;15682;56.742;38.866;2023-02-15T03:44:21;10.3;;;2.5;;
28455;SDS011;15682;56.742;38.866;2023-02-15T03:46:21;8.9;;;1.9;;
28455;SDS011;15682;56.742;38.866;2023-02-15T03:48:20;11.8;;;2.2;;
28455;SDS011;15682;56.742;38.866;2023-02-15T03:50:20;9.9;;;2.3;;
28455;SDS011;15682;56.742;38.866;2023-02-15T03:52:19;11.9;;;2.7;;
28455;SDS011;15682;56.742;38.866;2023-02-15T03:54:20;12.3;;;2.1;;
28455;SDS011;15682;56.742;38.866;2023-02-15T03:56:19;15.7;;;2.3;;
28455;SDS011;15682;56.742;38.866;2023-02-15T03:58:19;11.5;;;2.5;;
28455;SDS011;15682;56.742;38.866;2023-02-15T04:00:19;11.8;;;2.3;;
28455;SDS011;15682;56.742;38.866;2023-02-15T04:02:19;6.7;;;1.9;;
28455;SDS011;15682;56.742;38.866;2023-02-15T04:04:19;10.6;;;2.2;;
28455;SDS011;15682;56.742;38.866;2023-02-15T04:06:18;12.2;;;2.2;;
28455;SDS011;15682;56.742;38.866;2023-02-15T04:08:18;11.3;;;2.5;;
28455;SDS011;15682;56.742;38.866;2023-02-15T04:10:18;17.8;;;2.6;;
28455;SDS011;15682;56.742;38.866;2023-02-15T04:12:18;9.0;;;2.6;;
28455;SDS011;15682;56.742;38.866;2023-02-15T04:14:17;9.8;;;2.2;;
28455;SDS011;15682;56.742;38.866;2023-02-15T04:16:17;12.3;;;2.3;;
28455;SDS011;15682;56.742;38.866;2023-02-15T04:18:17;12.8;;;2.6;;
28455;SDS011;15682;56.742;38.866;2023-02-15T04:20:17;8.8;;;2.1;;
28455;SDS011;15682;56.742;38.866;2023-02-15T04:22:17;11.4;;;2.6;;
28455;SDS011;15682;56.742;38.866;2023-02-15T04:24:17;13.2;;;2.9;;
28455;SDS011;15682;56.742;38.866;2023-02-15T04:26:16;10.4;;;2.6;;
28455;SDS011;15682;56.742;38.866;2023-02-15T04:28:16;11.7;;;2.4;;
28455;SDS011;15682;56.742;38.866;2023-02-15T04:30:17;12.8;;;2.5;;
28455;SDS011;15682;56.742;38.866;2023-02-15T04:32:16;11.3;;;2.3;;
28455;SDS011;15682;56.742;38.866;2023-02-15T04:34:16;12.5;;;2.4;;
28455;SDS011;15682;56.742;38.866;2023-02-15T04:36:16;9.9;;;2.1;;
28455;SDS011;15682;56.742;38.866;2023-02-15T04:38:15;11.8;;;2.4;;
28455;SDS011;15682;56.742;38.866;2023-02-15T04:40:16;11.6;;;2.5;;
28455;SDS011;15682;56.742;38.866;2023-02-15T04:42:15;16.8;;;3.0;;
28455;SDS011;15682;56.742;38.866;2023-02-15T04:44:15;12.7;;;2.5;;
28455;SDS011;15682;56.742;38.866;2023-02-15T04:46:15;11.7;;;2.5;;
28455;SDS011;15682;56.742;38.866;2023-02-15T04:48:15;12.8;;;2.6;;
28455;SDS011;15682;56.742;38.866;2023-02-15T04:50:14;9.7;;;2.4;;
28455;SDS011;15682;56.742;38.866;2023-02-15T04:52:14;12.1;;;2.3;;
28455;SDS011;15682;56.742;38.866;2023-02-15T04:54:14;15.7;;;2.7;;
28455;SDS011;15682;56.742;38.866;2023-02-15T04:56:14;8.3;;;1.9;;
28455;SDS011;15682;56.742;38.866;2023-02-15T04:58:14;12.6;;;2.5;;
28455;SDS011;15682;56.742;38.866;2023-02-15T05:00:14;10.8;;;2.2;;
28455;SDS011;15682;56.742;38.866;2023-02-15T05:02:14;13.4;;;2.4;;
28455;SDS011;15682;56.742;38.866;2023-02-15T05:04:13;11.7;;;2.5;;
28455;SDS011;15682;56.742;38.866;2023-02-15T05:06:13;11.0;;;2.1;;
28455;SDS011;15682;56.742;38.866;2023-02-15T05:08:13;11.5;;;2.4;;
28455;SDS011;15682;56.742;38.866;2023-02-15T05:10:13;8.8;;;2.0;;
28455;SDS011;15682;56.742;38.866;2023-02-15T05:12:13;11.8;;;2.0;;
28455;SDS011;15682;56.742;38.866;2023-02-15T05:14:13;12.0;;;2.3;;
28455;SDS011;15682;56.742;38.866;2023-02-15T05:16:12;12.9;;;2.2;;
28455;SDS011;15682;56.742;38.866;2023-02-15T05:18:12;10.9;;;2.5;;
28455;SDS011;15682;56.742;38.866;2023-02-15T05:20:12;9.1;;;2.2;;
28455;SDS011;15682;56.742;38.866;2023-02-15T05:22:12;9.6;;;2.2;;
28455;SDS011;15682;56.742;38.866;2023-02-15T05:24:12;10.6;;;2.3;;
28455;SDS011;15682;56.742;38.866;2023-02-15T05:26:12;9.6;;;2.1;;
28455;SDS011;15682;56.742;38.866;2023-02-15T05:28:11;10.4;;;2.2;;
28455;SDS011;15682;56.742;38.866;2023-02-15T05:30:12;8.1;;;1.9;;
28455;SDS011;15682;56.742;38.866;2023-02-15T05:32:12;11.7;;;2.1;;
28455;SDS011;15682;56.742;38.866;2023-02-15T05:34:12;9.5;;;2.6;;
28455;SDS011;15682;56.742;38.866;2023-02-15T05:36:11;11.6;;;2.5;;
28455;SDS011;15682;56.742;38.866;2023-02-15T05:38:11;11.2;;;2.2;;
28455;SDS011;15682;56.742;38.866;2023-02-15T05:40:11;7.7;;;1.8;;
28455;SDS011;15682;56.742;38.866;2023-02-15T05:42:10;10.8;;;1.9;;
28455;SDS011;15682;56.742;38.866;2023-02-15T05:44:10;10.6;;;2.3;;
28455;SDS011;15682;56.742;38.866;2023-02-15T05:46:10;8.3;;;1.8;;
28455;SDS011;15682;56.742;38.866;2023-02-15T05:48:10;5.2;;;1.6;;
28455;SDS011;15682;56.742;38.866;2023-02-15T05:50:10;11.9;;;2.0;;
28455;SDS011;15682;56.742;38.866;2023-02-15T05:52:10;8.7;;;1.9;;
28455;SDS011;15682;56.742;38.866;2023-02-15T05:54:09;8.9;;;1.8;;
28455;SDS011;15682;56.742;38.866;2023-02-15T05:56:10;8.8;;;2.0;;
28455;SDS011;15682;56.742;38.866;2023-02-15T05:58:09;7.1;;;1.7;;
28455;SDS011;15682;56.742;38.866;2023-02-15T06:00:10;8.1;;;2.1;;
28455;SDS011;15682;56.742;38.866;2023-02-15T06:02:09;10.6;;;2.0;;
28455;SDS011;15682;56.742;38.866;2023-02-15T06:04:09;14.4;;;3.6;;
28455;SDS011;15682;56.742;38.866;2023-02-15T06:06:08;6.2;;;1.8;;
28455;SDS011;15682;56.742;38.866;2023-02-15T06:08:08;7.2;;;1.8;;
28455;SDS011;15682;56.742;38.866;2023-02-15T06:10:08;8.1;;;1.8;;
28455;SDS011;15682;56.742;38.866;2023-02-15T06:12:08;8.2;;;1.6;;
28455;SDS011;15682;56.742;38.866;2023-02-15T06:14:08;11.4;;;1.9;;
28455;SDS011;15682;56.742;38.866;2023-02-15T06:16:09;7.8;;;1.9;;
28455;SDS011;15682;56.742;38.866;2023-02-15T06:18:07;7.8;;;1.6;;
28455;SDS011;15682;56.742;38.866;2023-02-15T06:20:08;5.4;;;1.5;;
28455;SDS011;15682;56.742;38.866;2023-02-15T06:22:07;7.2;;;1.6;;
28455;SDS011;15682;56.742;38.866;2023-02-15T06:24:08;5.9;;;1.3;;
28455;SDS011;15682;56.742;38.866;2023-02-15T06:26:07;5.1;;;1.5;;
28455;SDS011;15682;56.742;38.866;2023-02-15T06:28:07;5.2;;;1.6;;
28455;SDS011;15682;56.742;38.866;2023-02-15T06:30:07;10.0;;;1.8;;
28455;SDS011;15682;56.742;38.866;2023-02-15T06:32:06;8.6;;;1.9;;
28455;SDS011;15682;56.742;38.866;2023-02-15T06:34:07;5.3;;;1.6;;
28455;SDS011;15682;56.742;38.866;2023-02-15T06:36:06;9.1;;;1.9;;
28455;SDS011;15682;56.742;38.866;2023-02-15T06:38:06;7.9;;;1.5;;
28455;SDS011;15682;56.742;38.866;2023-02-15T06:40:06;7.7;;;1.8;;
28455;SDS011;15682;56.742;38.866;2023-02-15T06:42:06;10.0;;;1.6;;
28455;SDS011;15682;56.742;38.866;2023-02-15T06:44:05;7.7;;;1.5;;
28455;SDS011;15682;56.742;38.866;2023-02-15T06:46:05;9.7;;;1.4;;
28455;SDS011;15682;56.742;38.866;2023-02-15T06:48:05;9.2;;;1.6;;
28455;SDS011;15682;56.742;38.866;2023-02-15T06:50:06;7.9;;;1.7;;
28455;SDS011;15682;56.742;38.866;2023-02-15T06:52:05;6.0;;;1.2;;
28455;SDS011;15682;56.742;38.866;2023-02-15T06:54:05;12.9;;;1.5;;
28455;SDS011;15682;56.742;38.866;2023-02-15T06:56:05;4.7;;;1.3;;
28455;SDS011;15682;56.742;38.866;2023-02-15T06:58:04;5.1;;;1.0;;
28455;SDS011;15682;56.742;38.866;2023-02-15T07:00:05;6.5;;;1.3;;
28455;SDS011;15682;56.742;38.866;2023-02-15T07:02:04;6.9;;;1.3;;
28455;SDS011;15682;56.742;38.866;2023-02-15T07:04:04;3.9;;;1.0;;
28455;SDS011;15682;56.742;38.866;2023-02-15T07:06:04;7.5;;;1.3;;
28455;SDS011;15682;56.742;38.866;2023-02-15T07:08:04;5.1;;;1.2;;
28455;SDS011;15682;56.742;38.866;2023-02-15T07:10:04;5.2;;;1.2;;
28455;SDS011;15682;56.742;38.866;2023-02-15T07:12:03;6.0;;;1.4;;
28455;SDS011;15682;56.742;38.866;2023-02-15T07:14:03;4.7;;;1.2;;
28455;SDS011;15682;56.742;38.866;2023-02-15T07:16:03;7.9;;;1.3;;
28455;SDS011;15682;56.742;38.866;2023-02-15T07:18:03;5.6;;;1.2;;
28455;SDS011;15682;56.742;38.866;2023-02-15T07:20:04;5.2;;;1.2;;
28455;SDS011;15682;56.742;38.866;2023-02-15T07:22:03;4.4;;;1.3;;
28455;SDS011;15682;56.742;38.866;2023-02-15T07:24:03;7.7;;;1.6;;
28455;SDS011;15682;56.742;38.866;2023-02-15T07:26:03;6.9;;;1.6;;
28455;SDS011;15682;56.742;38.866;2023-02-15T07:28:03;6.7;;;1.1;;
28455;SDS011;15682;56.742;38.866;2023-02-15T07:30:02;6.2;;;1.2;;
28455;SDS011;15682;56.742;38.866;2023-02-15T07:32:02;2.8;;;1.0;;
28455;SDS011;15682;56.742;38.866;2023-02-15T07:34:02;4.4;;;1.2;;
28455;SDS011;15682;56.742;38.866;2023-02-15T07:36:02;3.2;;;1.0;;
28455;SDS011;15682;56.742;38.866;2023-02-15T07:38:01;6.5;;;1.2;;
28455;SDS011;15682;56.742;38.866;2023-02-15T07:40:01;5.8;;;1.2;;
28455;SDS011;15682;56.742;38.866;2023-02-15T07:42:01;4.2;;;1.1;;
28455;SDS011;15682;56.742;38.866;2023-02-15T07:44:01;4.4;;;1.1;;
28455;SDS011;15682;56.742;38.866;2023-02-15T07:46:01;7.1;;;1.3;;
28455;SDS011;15682;56.742;38.866;2023-02-15T07:48:01;4.7;;;1.2;;
28455;SDS011;15682;56.742;38.866;2023-02-15T07:50:00;18.1;;;2.7;;
28455;SDS011;15682;56.742;38.866;2023-02-15T07:52:00;4.5;;;0.8;;
28455;SDS011;15682;56.742;38.866;2023-02-15T07:54:00;1.9;;;0.8;;
28455;SDS011;15682;56.742;38.866;2023-02-15T07:56:00;4.9;;;1.2;;
28455;SDS011;15682;56.742;38.866;2023-02-15T07:58:00;5.6;;;1.3;;
28455;SDS011;15682;56.742;38.866;2023-02-15T08:00:00;4.0;;;0.9;;
28455;SDS011;15682;56.742;38.866;2023-02-15T08:01:59;4.0;;;1.0;;
28455;SDS011;15682;56.742;38.866;2023-02-15T08:03:59;2.5;;;0.7;;
28455;SDS011;15682;56.742;38.866;2023-02-15T08:05:59;4.0;;;0.8;;
28455;SDS011;15682;56.742;38.866;2023-02-15T08:07:59;3.4;;;1.0;;
28455;SDS011;15682;56.742;38.866;2023-02-15T08:09:59;10.6;;;1.8;;
28455;SDS011;15682;56.742;38.866;2023-02-15T08:11:59;6.5;;;1.3;;
28455;SDS011;15682;56.742;38.866;2023-02-15T08:13:59;4.5;;;1.1;;
28455;SDS011;15682;56.742;38.866;2023-02-15T08:15:58;2.7;;;0.8;;
28455;SDS011;15682;56.742;38.866;2023-02-15T08:17:58;8.0;;;3.5;;
28455;SDS011;15682;56.742;38.866;2023-02-15T08:19:58;3.1;;;0.7;;
28455;SDS011;15682;56.742;38.866;2023-02-15T08:21:59;4.8;;;1.1;;
28455;SDS011;15682;56.742;38.866;2023-02-15T08:23:58;3.6;;;0.9;;
28455;SDS011;15682;56.742;38.866;2023-02-15T08:25:59;4.1;;;0.9;;
28455;SDS011;15682;56.742;38.866;2023-02-15T08:27:57;4.6;;;1.1;;
28455;SDS011;15682;56.742;38.866;2023-02-15T08:29:57;3.5;;;0.8;;
28455;SDS011;15682;56.742;38.866;2023-02-15T08:31:58;4.5;;;0.9;;
28455;SDS011;15682;56.742;38.866;2023-02-15T08:33:57;3.1;;;0.8;;
28455;SDS011;15682;56.742;38.866;2023-02-15T08:36:01;3.2;;;0.8;;
28455;SDS011;15682;56.742;38.866;2023-02-15T08:37:57;2.6;;;0.6;;
28455;SDS011;15682;56.742;38.866;2023-02-15T08:39:57;2.0;;;0.7;;
28455;SDS011;15682;56.742;38.866;2023-02-15T08:41:56;3.5;;;0.8;;
28455;SDS011;15682;56.742;38.866;2023-02-15T08:43:57;2.9;;;1.0;;
28455;SDS011;15682;56.742;38.866;2023-02-15T08:45:56;2.5;;;0.8;;
28455;SDS011;15682;56.742;38.866;2023-02-15T08:47:56;1.6;;;0.6;;
28455;SDS011;15682;56.742;38.866;2023-02-15T08:49:56;2.3;;;0.7;;
28455;SDS011;15682;56.742;38.866;2023-02-15T08:51:56;1.1;;;0.6;;
28455;SDS011;15682;56.742;38.866;2023-02-15T08:53:56;3.5;;;0.8;;
28455;SDS011;15682;56.742;38.866;2023-02-15T08:55:56;4.0;;;0.9;;
28455;SDS011;15682;56.742;38.866;2023-02-15T08:57:55;2.9;;;0.7;;
28455;SDS011;15682;56.742;38.866;2023-02-15T08:59:55;2.0;;;0.7;;
28455;SDS011;15682;56.742;38.866;2023-02-15T09:01:55;2.5;;;0.9;;
28455;SDS011;15682;56.742;38.866;2023-02-15T09:03:56;4.9;;;0.9;;
28455;SDS011;15682;56.742;38.866;2023-02-15T09:05:56;2.0;;;0.8;;
28455;SDS011;15682;56.742;38.866;2023-02-15T09:07:55;3.3;;;0.7;;
28455;SDS011;15682;56.742;38.866;2023-02-15T09:09:54;1.8;;;0.7;;
28455;SDS011;15682;56.742;38.866;2023-02-15T09:11:54;1.9;;;0.7;;
28455;SDS011;15682;56.742;38.866;2023-02-15T09:13:55;3.0;;;0.8;;
28455;SDS011;15682;56.742;38.866;2023-02-15T09:15:58;6.4;;;1.4;;
28455;SDS011;15682;56.742;38.866;2023-02-15T09:17:54;8.0;;;2.1;;
28455;SDS011;15682;56.742;38.866;2023-02-15T09:19:54;3.7;;;1.1;;
28455;SDS011;15682;56.742;38.866;2023-02-15T09:21:54;8.0;;;1.4;;
28455;SDS011;15682;56.742;38.866;2023-02-15T09:23:55;4.5;;;1.1;;
28455;SDS011;15682;56.742;38.866;2023-02-15T09:25:53;3.2;;;0.9;;
28455;SDS011;15682;56.742;38.866;2023-02-15T09:27:53;2.5;;;0.7;;
28455;SDS011;15682;56.742;38.866;2023-02-15T09:29:53;7.1;;;1.2;;
28455;SDS011;15682;56.742;38.866;2023-02-15T09:31:53;1.9;;;0.6;;
28455;SDS011;15682;56.742;38.866;2023-02-15T09:33:53;2.8;;;0.8;;
28455;SDS011;15682;56.742;38.866;2023-02-15T09:35:53;3.2;;;0.9;;
28455;SDS011;15682;56.742;38.866;2023-02-15T09:37:53;15.9;;;2.3;;
28455;SDS011;15682;56.742;38.866;2023-02-15T09:39:53;2.4;;;0.7;;
28455;SDS011;15682;56.742;38.866;2023-02-15T09:42:05;1.5;;;0.5;;
28455;SDS011;15682;56.742;38.866;2023-02-15T09:43:54;2.3;;;0.8;;
28455;SDS011;15682;56.742;38.866;2023-02-15T09:45:56;4.1;;;0.6;;
28455;SDS011;15682;56.742;38.866;2023-02-15T09:49:53;2.9;;;0.8;;
28455;SDS011;15682;56.742;38.866;2023-02-15T09:51:56;2.9;;;0.9;;
28455;SDS011;15682;56.742;38.866;2023-02-15T09:53:56;1.1;;;0.6;;
28455;SDS011;15682;56.742;38.866;2023-02-15T09:55:53;1.5;;;0.6;;
28455;SDS011;15682;56.742;38.866;2023-02-15T09:57:53;3.3;;;0.8;;
28455;SDS011;15682;56.742;38.866;2023-02-15T09:59:54;3.3;;;0.9;;
28455;SDS011;15682;56.742;38.866;2023-02-15T10:01:53;3.2;;;0.9;;
28455;SDS011;15682;56.742;38.866;2023-02-15T10:03:54;4.2;;;1.3;;
28455;SDS011;15682;56.742;38.866;2023-02-15T10:05:54;4.0;;;1.0;;
28455;SDS011;15682;56.742;38.866;2023-02-15T10:09:55;2.4;;;0.5;;
28455;SDS011;15682;56.742;38.866;2023-02-15T10:11:55;2.3;;;0.5;;
28455;SDS011;15682;56.742;38.866;2023-02-15T10:13:52;2.0;;;0.6;;
28455;SDS011;15682;56.742;38.866;2023-02-15T10:15:53;4.1;;;0.7;;
28455;SDS011;15682;56.742;38.866;2023-02-15T10:17:54;4.2;;;0.5;;
28455;SDS011;15682;56.742;38.866;2023-02-15T10:19:52;3.2;;;0.6;;
28455;SDS011;15682;56.742;38.866;2023-02-15T10:21:54;3.8;;;0.5;;
28455;SDS011;15682;56.742;38.866;2023-02-15T10:24:01;1.2;;;0.6;;
28455;SDS011;15682;56.742;38.866;2023-02-15T10:25:50;2.6;;;0.9;;
28455;SDS011;15682;56.742;38.866;2023-02-15T10:27:49;2.9;;;0.7;;
28455;SDS011;15682;56.742;38.866;2023-02-15T10:29:53;3.9;;;0.9;;
28455;SDS011;15682;56.742;38.866;2023-02-15T10:31:50;3.1;;;0.6;;
28455;SDS011;15682;56.742;38.866;2023-02-15T10:33:51;5.4;;;1.1;;
28455;SDS011;15682;56.742;38.866;2023-02-15T10:35:50;8.3;;;1.6;;
28455;SDS011;15682;56.742;38.866;2023-02-15T10:37:51;2.3;;;0.7;;
28455;SDS011;15682;56.742;38.866;2023-02-15T10:39:51;3.2;;;0.7;;
28455;SDS011;15682;56.742;38.866;2023-02-15T10:41:50;3.4;;;1.1;;
28455;SDS011;15682;56.742;38.866;2023-02-15T10:43:53;3.9;;;0.9;;
28455;SDS011;15682;56.742;38.866;2023-02-15T10:45:51;1.7;;;0.7;;
28455;SDS011;15682;56.742;38.866;2023-02-15T10:47:52;2.1;;;0.6;;
28455;SDS011;15682;56.742;38.866;2023-02-15T10:49:51;2.5;;;0.6;;
28455;SDS011;15682;56.742;38.866;2023-02-15T10:51:51;1.9;;;0.7;;
28455;SDS011;15682;56.742;38.866;2023-02-15T10:53:52;4.9;;;0.9;;
28455;SDS011;15682;56.742;38.866;2023-02-15T10:55:51;1.1;;;0.6;;
28455;SDS011;15682;56.742;38.866;2023-02-15T10:57:49;1.8;;;0.6;;
28455;SDS011;15682;56.742;38.866;2023-02-15T10:59:54;2.5;;;0.9;;
28455;SDS011;15682;56.742;38.866;2023-02-15T11:01:49;2.5;;;0.7;;
28455;SDS011;15682;56.742;38.866;2023-02-15T11:03:52;1.5;;;0.8;;
28455;SDS011;15682;56.742;38.866;2023-02-15T11:05:50;2.8;;;0.8;;
28455;SDS011;15682;56.742;38.866;2023-02-15T11:07:47;2.3;;;0.7;;
28455;SDS011;15682;56.742;38.866;2023-02-15T11:09:48;3.2;;;1.0;;
28455;SDS011;15682;56.742;38.866;2023-02-15T11:11:47;1.9;;;0.9;;
28455;SDS011;15682;56.742;38.866;2023-02-15T11:13:47;2.4;;;1.0;;
28455;SDS011;15682;56.742;38.866;2023-02-15T11:15:48;7.9;;;1.6;;
28455;SDS011;15682;56.742;38.866;2023-02-15T11:17:49;4.9;;;1.3;;
28455;SDS011;15682;56.742;38.866;2023-02-15T11:19:48;2.7;;;0.9;;
28455;SDS011;15682;56.742;38.866;2023-02-15T11:21:48;6.4;;;1.6;;
28455;SDS011;15682;56.742;38.866;2023-02-15T11:23:46;3.0;;;1.1;;
28455;SDS011;15682;56.742;38.866;2023-02-15T11:25:47;2.8;;;0.9;;
28455;SDS011;15682;56.742;38.866;2023-02-15T11:27:46;3.9;;;0.7;;
28455;SDS011;15682;56.742;38.866;2023-02-15T11:29:50;3.6;;;0.6;;
28455;SDS011;15682;56.742;38.866;2023-02-15T11:31:46;28.6;;;4.7;;
28455;SDS011;15682;56.742;38.866;2023-02-15T11:33:46;4.1;;;0.6;;
28455;SDS011;15682;56.742;38.866;2023-02-15T11:35:48;2.2;;;0.8;;
28455;SDS011;15682;56.742;38.866;2023-02-15T11:37:46;0.9;;;0.4;;
28455;SDS011;15682;56.742;38.866;2023-02-15T11:39:45;2.1;;;0.6;;
28455;SDS011;15682;56.742;38.866;2023-02-15T11:41:46;7.1;;;0.8;;
28455;SDS011;15682;56.742;38.866;2023-02-15T11:43:46;3.4;;;0.5;;
28455;SDS011;15682;56.742;38.866;2023-02-15T11:45:45;8.7;;;1.0;;
28455;SDS011;15682;56.742;38.866;2023-02-15T11:47:45;2.0;;;0.6;;
28455;SDS011;15682;56.742;38.866;2023-02-15T11:49:44;1.9;;;0.5;;
28455;SDS011;15682;56.742;38.866;2023-02-15T11:51:44;2.1;;;0.6;;
28455;SDS011;15682;56.742;38.866;2023-02-15T11:53:44;1.9;;;0.6;;
28455;SDS011;15682;56.742;38.866;2023-02-15T11:55:45;1.8;;;0.6;;
28455;SDS011;15682;56.742;38.866;2023-02-15T11:57:45;2.6;;;0.7;;
28455;SDS011;15682;56.742;38.866;2023-02-15T11:59:45;21.0;;;3.1;;
28455;SDS011;15682;56.742;38.866;2023-02-15T12:01:44;1.6;;;0.6;;
28455;SDS011;15682;56.742;38.866;2023-02-15T12:03:45;2.9;;;0.6;;
28455;SDS011;15682;56.742;38.866;2023-02-15T12:05:44;2.2;;;0.6;;
28455;SDS011;15682;56.742;38.866;2023-02-15T12:07:44;1.8;;;0.6;;
28455;SDS011;15682;56.742;38.866;2023-02-15T12:09:46;2.0;;;0.5;;
28455;SDS011;15682;56.742;38.866;2023-02-15T12:11:43;1.8;;;0.7;;
28455;SDS011;15682;56.742;38.866;2023-02-15T12:13:55;1.9;;;0.5;;
28455;SDS011;15682;56.742;38.866;2023-02-15T12:15:43;1.7;;;0.6;;
28455;SDS011;15682;56.742;38.866;2023-02-15T12:17:48;1.2;;;0.5;;